sensor_id;sensor_type;location;lat;lon;timestamp;pressure;altitude;pressure_sealevel;temperature;humidity
76114;BME280;64845;53.086;5.834;2023-05-29T00:01:05;102621.66;;;10.06;65.54
76114;BME280;64845;53.086;5.834;2023-05-29T00:03:33;102620.81;;;10.03;65.76
76114;BME280;64845;53.086;5.834;2023-05-29T00:05:58;102624.34;;;10.03;65.74
76114;BME280;64845;53.086;5.834;2023-05-29T00:08:26;102616.38;;;10.02;65.86
76114;BME280;64845;53.086;5.834;2023-05-29T00:10:51;102621.69;;;10.02;65.86
76114;BME280;64845;53.086;5.834;2023-05-29T00:13:16;102626.13;;;10.03;65.81
76114;BME280;64845;53.086;5.834;2023-05-29T00:15:42;102625.25;;;10.04;65.71
76114;BME280;64845;53.086;5.834;2023-05-29T00:18:07;102619.94;;;10.01;65.67
76114;BME280;64845;53.086;5.834;2023-05-29T00:20:33;102622.59;;;10.01;66.08
76114;BME280;64845;53.086;5.834;2023-05-29T00:22:59;102619.94;;;9.99;65.76
76114;BME280;64845;53.086;5.834;2023-05-29T00:25:27;102619.94;;;9.97;66.05
76114;BME280;64845;53.086;5.834;2023-05-29T00:27:52;102619.97;;;9.94;66.05
76114;BME280;64845;53.086;5.834;2023-05-29T00:30:18;102623.56;;;9.92;65.82
76114;BME280;64845;53.086;5.834;2023-05-29T00:32:43;102628.91;;;9.90;66.08
76114;BME280;64845;53.086;5.834;2023-05-29T00:35:09;102625.34;;;9.90;66.21
76114;BME280;64845;53.086;5.834;2023-05-29T00:37:35;102628.91;;;9.90;66.24
76114;BME280;64845;53.086;5.834;2023-05-29T00:40:00;102624.47;;;9.89;66.21
76114;BME280;64845;53.086;5.834;2023-05-29T00:42:26;102626.25;;;9.89;66.22
76114;BME280;64845;53.086;5.834;2023-05-29T00:44:51;102632.47;;;9.89;66.49
76114;BME280;64845;53.086;5.834;2023-05-29T00:47:17;102635.13;;;9.88;66.18
76114;BME280;64845;53.086;5.834;2023-05-29T00:49:42;102644.06;;;9.88;66.13
76114;BME280;64845;53.086;5.834;2023-05-29T00:52:09;102642.28;;;9.87;66.33
76114;BME280;64845;53.086;5.834;2023-05-29T00:54:36;102644.94;;;9.86;66.25
76114;BME280;64845;53.086;5.834;2023-05-29T00:57:02;102650.28;;;9.84;66.35
76114;BME280;64845;53.086;5.834;2023-05-29T00:59:30;102651.19;;;9.81;66.05
76114;BME280;64845;53.086;5.834;2023-05-29T01:01:57;102649.47;;;9.77;66.51
76114;BME280;64845;53.086;5.834;2023-05-29T01:04:25;102639.69;;;9.73;66.49
76114;BME280;64845;53.086;5.834;2023-05-29T01:06:51;102643.28;;;9.69;66.36
76114;BME280;64845;53.086;5.834;2023-05-29T01:09:17;102642.41;;;9.68;66.58
76114;BME280;64845;53.086;5.834;2023-05-29T01:14:10;102651.34;;;9.60;66.40
76114;BME280;64845;53.086;5.834;2023-05-29T01:16:48;102654.03;;;9.53;66.51
76114;BME280;64845;53.086;5.834;2023-05-29T01:22:00;102648.72;;;9.49;66.60
76114;BME280;64845;53.086;5.834;2023-05-29T01:24:37;102660.28;;;9.48;66.85
76114;BME280;64845;53.086;5.834;2023-05-29T01:27:05;102646.06;;;9.46;66.90
76114;BME280;64845;53.086;5.834;2023-05-29T01:29:34;102661.19;;;9.47;66.84
76114;BME280;64845;53.086;5.834;2023-05-29T01:32:00;102655.84;;;9.47;66.65
76114;BME280;64845;53.086;5.834;2023-05-29T01:34:27;102661.19;;;9.47;66.99
76114;BME280;64845;53.086;5.834;2023-05-29T01:36:53;102653.16;;;9.45;67.01
76114;BME280;64845;53.086;5.834;2023-05-29T01:39:19;102645.19;;;9.47;66.63
76114;BME280;64845;53.086;5.834;2023-05-29T01:41:46;102646.06;;;9.47;66.76
76114;BME280;64845;53.086;5.834;2023-05-29T01:44:13;102644.28;;;9.48;66.83
76114;BME280;64845;53.086;5.834;2023-05-29T01:46:40;102637.16;;;9.48;67.16
76114;BME280;64845;53.086;5.834;2023-05-29T01:49:06;102638.94;;;9.49;66.71
76114;BME280;64845;53.086;5.834;2023-05-29T01:51:32;102646.03;;;9.50;67.04
76114;BME280;64845;53.086;5.834;2023-05-29T01:53:58;102641.59;;;9.52;66.69
76114;BME280;64845;53.086;5.834;2023-05-29T01:56:27;102647.81;;;9.51;66.65
76114;BME280;64845;53.086;5.834;2023-05-29T01:58:54;102639.84;;;9.50;66.59
76114;BME280;64845;53.086;5.834;2023-05-29T02:01:21;102635.41;;;9.49;66.58
76114;BME280;64845;53.086;5.834;2023-05-29T02:03:47;102643.41;;;9.49;66.88
76114;BME280;64845;53.086;5.834;2023-05-29T02:06:12;102637.19;;;9.47;66.69
76114;BME280;64845;53.086;5.834;2023-05-29T02:08:38;102647.84;;;9.47;66.76
76114;BME280;64845;53.086;5.834;2023-05-29T02:11:03;102659.41;;;9.46;66.57
76114;BME280;64845;53.086;5.834;2023-05-29T02:13:28;102659.41;;;9.44;66.87
76114;BME280;64845;53.086;5.834;2023-05-29T02:15:54;102660.31;;;9.45;66.85
76114;BME280;64845;53.086;5.834;2023-05-29T02:18:20;102658.53;;;9.44;66.58
76114;BME280;64845;53.086;5.834;2023-05-29T02:20:45;102664.75;;;9.43;66.72
76114;BME280;64845;53.086;5.834;2023-05-29T02:23:11;102666.53;;;9.41;66.72
76114;BME280;64845;53.086;5.834;2023-05-29T02:25:37;102662.13;;;9.38;66.88
76114;BME280;64845;53.086;5.834;2023-05-29T02:28:02;102653.22;;;9.36;66.54
76114;BME280;64845;53.086;5.834;2023-05-29T02:30:28;102660.31;;;9.35;66.89
76114;BME280;64845;53.086;5.834;2023-05-29T02:32:54;102667.44;;;9.36;66.80
76114;BME280;64845;53.086;5.834;2023-05-29T02:35:20;102662.09;;;9.36;66.62
76114;BME280;64845;53.086;5.834;2023-05-29T02:37:50;102657.66;;;9.37;66.92
76114;BME280;64845;53.086;5.834;2023-05-29T02:40:16;102652.34;;;9.37;66.92
76114;BME280;64845;53.086;5.834;2023-05-29T02:42:42;102663.88;;;9.37;66.87
76114;BME280;64845;53.086;5.834;2023-05-29T02:45:08;102665.66;;;9.38;66.75
76114;BME280;64845;53.086;5.834;2023-05-29T02:47:34;102669.22;;;9.39;66.93
76114;BME280;64845;53.086;5.834;2023-05-29T02:49:59;102661.19;;;9.41;66.92
76114;BME280;64845;53.086;5.834;2023-05-29T02:52:24;102670.09;;;9.43;67.30
76114;BME280;64845;53.086;5.834;2023-05-29T02:54:50;102670.09;;;9.43;66.81
76114;BME280;64845;53.086;5.834;2023-05-29T02:57:15;102665.63;;;9.42;66.82
76114;BME280;64845;53.086;5.834;2023-05-29T02:59:41;102662.09;;;9.41;67.22
76114;BME280;64845;53.086;5.834;2023-05-29T03:02:07;102660.28;;;9.43;67.21
76114;BME280;64845;53.086;5.834;2023-05-29T03:04:32;102656.72;;;9.44;67.09
76114;BME280;64845;53.086;5.834;2023-05-29T03:06:58;102654.97;;;9.45;67.13
76114;BME280;64845;53.086;5.834;2023-05-29T03:09:23;102654.06;;;9.46;67.05
76114;BME280;64845;53.086;5.834;2023-05-29T03:11:48;102650.50;;;9.47;66.89
76114;BME280;64845;53.086;5.834;2023-05-29T03:14:16;102647.84;;;9.47;67.03
76114;BME280;64845;53.086;5.834;2023-05-29T03:16:41;102655.81;;;9.48;66.89
76114;BME280;64845;53.086;5.834;2023-05-29T03:19:07;102647.84;;;9.50;67.11
76114;BME280;64845;53.086;5.834;2023-05-29T03:21:35;102646.03;;;9.50;66.66
76114;BME280;64845;53.086;5.834;2023-05-29T03:24:01;102646.03;;;9.53;66.84
76114;BME280;64845;53.086;5.834;2023-05-29T03:26:30;102643.34;;;9.55;66.92
76114;BME280;64845;53.086;5.834;2023-05-29T03:28:55;102649.56;;;9.57;67.16
76114;BME280;64845;53.086;5.834;2023-05-29T03:31:20;102649.56;;;9.59;66.76
76114;BME280;64845;53.086;5.834;2023-05-29T03:33:47;102650.44;;;9.59;67.02
76114;BME280;64845;53.086;5.834;2023-05-29T03:36:12;102640.66;;;9.61;67.05
76114;BME280;64845;53.086;5.834;2023-05-29T03:38:38;102654.84;;;9.65;67.07
76114;BME280;64845;53.086;5.834;2023-05-29T03:41:03;102656.63;;;9.67;66.76
76114;BME280;64845;53.086;5.834;2023-05-29T03:43:28;102648.59;;;9.69;66.83
76114;BME280;64845;53.086;5.834;2023-05-29T03:45:54;102654.81;;;9.71;66.83
76114;BME280;64845;53.086;5.834;2023-05-29T03:48:19;102652.13;;;9.73;66.79
76114;BME280;64845;53.086;5.834;2023-05-29T03:50:46;102654.78;;;9.76;66.61
76114;BME280;64845;53.086;5.834;2023-05-29T03:53:12;102661.00;;;9.78;66.93
76114;BME280;64845;53.086;5.834;2023-05-29T03:55:37;102664.53;;;9.81;66.82
76114;BME280;64845;53.086;5.834;2023-05-29T03:58:03;102664.53;;;9.83;66.79
76114;BME280;64845;53.086;5.834;2023-05-29T04:00:28;102668.97;;;9.84;66.91
76114;BME280;64845;53.086;5.834;2023-05-29T04:02:55;102668.97;;;9.87;66.99
76114;BME280;64845;53.086;5.834;2023-05-29T04:05:21;102682.28;;;9.89;66.84
76114;BME280;64845;53.086;5.834;2023-05-29T04:07:46;102682.28;;;9.90;66.94
76114;BME280;64845;53.086;5.834;2023-05-29T04:10:12;102683.13;;;9.94;66.58
76114;BME280;64845;53.086;5.834;2023-05-29T04:12:37;102683.09;;;9.98;66.99
76114;BME280;64845;53.086;5.834;2023-05-29T04:15:03;102690.19;;;10.01;66.94
76114;BME280;64845;53.086;5.834;2023-05-29T04:17:29;102688.41;;;10.03;66.79
76114;BME280;64845;53.086;5.834;2023-05-29T04:19:54;102692.84;;;10.06;66.84
76114;BME280;64845;53.086;5.834;2023-05-29T04:22:20;102696.38;;;10.06;66.78
76114;BME280;64845;53.086;5.834;2023-05-29T04:24:46;102697.28;;;10.07;66.64
76114;BME280;64845;53.086;5.834;2023-05-29T04:27:11;102691.03;;;10.09;66.44
76114;BME280;64845;53.086;5.834;2023-05-29T04:29:39;102687.44;;;10.12;67.01
76114;BME280;64845;53.086;5.834;2023-05-29T04:32:06;102691.88;;;10.16;66.80
76114;BME280;64845;53.086;5.834;2023-05-29T04:34:31;102691.81;;;10.21;66.96
76114;BME280;64845;53.086;5.834;2023-05-29T04:36:57;102690.91;;;10.25;66.60
76114;BME280;64845;53.086;5.834;2023-05-29T04:39:23;102704.22;;;10.31;66.42
76114;BME280;64845;53.086;5.834;2023-05-29T04:41:49;102695.28;;;10.34;66.85
76114;BME280;64845;53.086;5.834;2023-05-29T04:44:15;102696.19;;;10.39;66.55
76114;BME280;64845;53.086;5.834;2023-05-29T04:46:40;102710.41;;;10.41;66.34
76114;BME280;64845;53.086;5.834;2023-05-29T04:49:09;102704.16;;;10.45;66.46
76114;BME280;64845;53.086;5.834;2023-05-29T04:51:35;102700.53;;;10.51;66.40
76114;BME280;64845;53.086;5.834;2023-05-29T04:54:01;102704.03;;;10.57;66.54
76114;BME280;64845;53.086;5.834;2023-05-29T04:56:27;102703.13;;;10.62;66.20
76114;BME280;64845;53.086;5.834;2023-05-29T04:58:53;102711.09;;;10.68;66.28
76114;BME280;64845;53.086;5.834;2023-05-29T05:01:19;102711.03;;;10.72;66.07
76114;BME280;64845;53.086;5.834;2023-05-29T05:03:44;102703.88;;;10.73;65.95
76114;BME280;64845;53.086;5.834;2023-05-29T05:06:11;102703.91;;;10.75;66.07
76114;BME280;64845;53.086;5.834;2023-05-29T05:08:38;102710.13;;;10.77;65.90
76114;BME280;64845;53.086;5.834;2023-05-29T05:11:04;102716.28;;;10.79;65.45
76114;BME280;64845;53.086;5.834;2023-05-29T05:13:31;102717.19;;;10.82;65.55
76114;BME280;64845;53.086;5.834;2023-05-29T05:15:56;102716.31;;;10.80;65.46
76114;BME280;64845;53.086;5.834;2023-05-29T05:18:22;102713.59;;;10.82;65.48
76114;BME280;64845;53.086;5.834;2023-05-29T05:20:47;102712.72;;;10.84;65.33
76114;BME280;64845;53.086;5.834;2023-05-29T05:23:12;102712.69;;;10.87;64.95
76114;BME280;64845;53.086;5.834;2023-05-29T05:25:38;102711.72;;;10.92;65.02
76114;BME280;64845;53.086;5.834;2023-05-29T05:28:04;102712.56;;;10.97;65.16
76114;BME280;64845;53.086;5.834;2023-05-29T05:30:30;102713.41;;;11.02;64.98
76114;BME280;64845;53.086;5.834;2023-05-29T05:32:55;102711.59;;;11.07;65.00
76114;BME280;64845;53.086;5.834;2023-05-29T05:35:21;102711.53;;;11.12;64.85
76114;BME280;64845;53.086;5.834;2023-05-29T05:37:46;102714.09;;;11.18;65.06
76114;BME280;64845;53.086;5.834;2023-05-29T05:40:12;102707.88;;;11.21;64.90
76114;BME280;64845;53.086;5.834;2023-05-29T05:42:37;102708.69;;;11.26;64.94
76114;BME280;64845;53.086;5.834;2023-05-29T05:45:03;102715.78;;;11.28;64.90
76114;BME280;64845;53.086;5.834;2023-05-29T05:47:29;102715.75;;;11.31;64.84
76114;BME280;64845;53.086;5.834;2023-05-29T05:49:55;102720.19;;;11.34;64.84
76114;BME280;64845;53.086;5.834;2023-05-29T05:52:21;102719.28;;;11.35;64.37
76114;BME280;64845;53.086;5.834;2023-05-29T05:54:48;102721.00;;;11.39;64.41
76114;BME280;64845;53.086;5.834;2023-05-29T05:57:13;102716.53;;;11.41;64.08
76114;BME280;64845;53.086;5.834;2023-05-29T05:59:38;102714.72;;;11.43;63.94
76114;BME280;64845;53.086;5.834;2023-05-29T06:02:04;102726.31;;;11.45;63.99
76114;BME280;64845;53.086;5.834;2023-05-29T06:04:30;102720.91;;;11.47;63.70
76114;BME280;64845;53.086;5.834;2023-05-29T06:06:55;102732.47;;;11.51;63.80
76114;BME280;64845;53.086;5.834;2023-05-29T06:09:21;102728.88;;;11.53;63.61
76114;BME280;64845;53.086;5.834;2023-05-29T06:11:47;102735.94;;;11.59;63.86
76114;BME280;64845;53.086;5.834;2023-05-29T06:14:13;102734.97;;;11.64;63.69
76114;BME280;64845;53.086;5.834;2023-05-29T06:16:39;102736.66;;;11.72;63.59
76114;BME280;64845;53.086;5.834;2023-05-29T06:19:04;102744.59;;;11.78;63.62
76114;BME280;64845;53.086;5.834;2023-05-29T06:21:29;102730.25;;;11.82;63.54
76114;BME280;64845;53.086;5.834;2023-05-29T06:23:55;102739.16;;;11.86;63.15
76114;BME280;64845;53.086;5.834;2023-05-29T06:26:21;102739.16;;;11.86;63.07
76114;BME280;64845;53.086;5.834;2023-05-29T06:28:46;102738.19;;;11.90;62.66
76114;BME280;64845;53.086;5.834;2023-05-29T06:31:12;102740.78;;;11.96;62.85
76114;BME280;64845;53.086;5.834;2023-05-29T06:33:37;102752.31;;;12.03;62.69
76114;BME280;64845;53.086;5.834;2023-05-29T06:36:03;102746.88;;;12.07;62.58
76114;BME280;64845;53.086;5.834;2023-05-29T06:38:28;102750.44;;;12.11;62.38
76114;BME280;64845;53.086;5.834;2023-05-29T06:40:54;102749.50;;;12.14;62.50
76114;BME280;64845;53.086;5.834;2023-05-29T06:43:19;102750.34;;;12.16;62.27
76114;BME280;64845;53.086;5.834;2023-05-29T06:45:45;102746.78;;;12.17;62.29
76114;BME280;64845;53.086;5.834;2023-05-29T06:48:10;102746.78;;;12.17;61.91
76114;BME280;64845;53.086;5.834;2023-05-29T06:50:35;102761.06;;;12.16;61.83
76114;BME280;64845;53.086;5.834;2023-05-29T06:53:01;102762.91;;;12.11;61.51
76114;BME280;64845;53.086;5.834;2023-05-29T06:55:26;102760.28;;;12.07;61.53
76114;BME280;64845;53.086;5.834;2023-05-29T06:57:51;102761.13;;;12.13;61.57
76114;BME280;64845;53.086;5.834;2023-05-29T07:00:17;102764.63;;;12.18;61.49
76114;BME280;64845;53.086;5.834;2023-05-29T07:02:43;102772.56;;;12.22;61.49
76114;BME280;64845;53.086;5.834;2023-05-29T07:05:08;102768.13;;;12.23;61.10
76114;BME280;64845;53.086;5.834;2023-05-29T07:07:34;102773.38;;;12.29;61.29
76114;BME280;64845;53.086;5.834;2023-05-29T07:09:59;102775.13;;;12.30;61.16
76114;BME280;64845;53.086;5.834;2023-05-29T07:12:26;102782.25;;;12.33;61.02
76114;BME280;64845;53.086;5.834;2023-05-29T07:14:51;102774.19;;;12.34;60.98
76114;BME280;64845;53.086;5.834;2023-05-29T07:17:17;102782.16;;;12.39;60.98
76114;BME280;64845;53.086;5.834;2023-05-29T07:19:42;102786.59;;;12.40;60.70
76114;BME280;64845;53.086;5.834;2023-05-29T07:22:08;102795.50;;;12.44;60.54
76114;BME280;64845;53.086;5.834;2023-05-29T07:24:33;102791.81;;;12.49;60.74
76114;BME280;64845;53.086;5.834;2023-05-29T07:26:58;102782.75;;;12.57;60.62
76114;BME280;64845;53.086;5.834;2023-05-29T07:29:25;102801.47;;;12.61;60.44
76114;BME280;64845;53.086;5.834;2023-05-29T07:31:51;102794.22;;;12.66;60.50
76114;BME280;64845;53.086;5.834;2023-05-29T07:34:17;102789.72;;;12.70;60.35
76114;BME280;64845;53.086;5.834;2023-05-29T07:37:04;102794.16;;;12.71;60.24
76114;BME280;64845;53.086;5.834;2023-05-29T07:39:31;102786.13;;;12.71;60.12
76114;BME280;64845;53.086;5.834;2023-05-29T07:41:56;102781.66;;;12.70;60.04
76114;BME280;64845;53.086;5.834;2023-05-29T07:44:22;102797.84;;;12.64;59.79
76114;BME280;64845;53.086;5.834;2023-05-29T07:46:47;102780.97;;;12.57;59.66
76114;BME280;64845;53.086;5.834;2023-05-29T07:49:13;102782.78;;;12.55;59.56
76114;BME280;64845;53.086;5.834;2023-05-29T07:51:39;102781.97;;;12.51;59.60
76114;BME280;64845;53.086;5.834;2023-05-29T07:54:05;102778.34;;;12.54;59.57
76114;BME280;64845;53.086;5.834;2023-05-29T07:56:30;102784.41;;;12.65;59.55
76114;BME280;64845;53.086;5.834;2023-05-29T07:58:56;102783.31;;;12.79;59.83
76114;BME280;64845;53.086;5.834;2023-05-29T08:01:22;102784.00;;;12.92;59.83
76114;BME280;64845;53.086;5.834;2023-05-29T08:03:48;102781.94;;;13.05;59.58
76114;BME280;64845;53.086;5.834;2023-05-29T08:06:13;102779.16;;;13.11;59.52
76114;BME280;64845;53.086;5.834;2023-05-29T08:08:39;102782.59;;;13.19;59.41
76114;BME280;64845;53.086;5.834;2023-05-29T08:11:04;102778.09;;;13.21;59.21
76114;BME280;64845;53.086;5.834;2023-05-29T08:13:30;102783.31;;;13.29;59.13
76114;BME280;64845;53.086;5.834;2023-05-29T08:15:56;102782.34;;;13.33;58.80
76114;BME280;64845;53.086;5.834;2023-05-29T08:18:25;102779.63;;;13.35;58.59
76114;BME280;64845;53.086;5.834;2023-05-29T08:20:50;102792.06;;;13.37;58.49
76114;BME280;64845;53.086;5.834;2023-05-29T08:23:17;102789.34;;;13.42;58.59
76114;BME280;64845;53.086;5.834;2023-05-29T08:25:42;102791.97;;;13.45;58.48
76114;BME280;64845;53.086;5.834;2023-05-29T08:28:08;102800.81;;;13.52;58.53
76114;BME280;64845;53.086;5.834;2023-05-29T08:30:33;102798.00;;;13.56;58.56
76114;BME280;64845;53.086;5.834;2023-05-29T08:32:58;102799.78;;;13.57;58.60
76114;BME280;64845;53.086;5.834;2023-05-29T08:35:24;102803.41;;;13.55;58.21
76114;BME280;64845;53.086;5.834;2023-05-29T08:37:49;102808.00;;;13.48;58.03
76114;BME280;64845;53.086;5.834;2023-05-29T08:40:15;102803.72;;;13.36;57.83
76114;BME280;64845;53.086;5.834;2023-05-29T08:42:46;102801.91;;;13.38;57.85
76114;BME280;64845;53.086;5.834;2023-05-29T08:45:13;102812.63;;;13.38;57.82
76114;BME280;64845;53.086;5.834;2023-05-29T08:47:40;102805.47;;;13.40;57.74
76114;BME280;64845;53.086;5.834;2023-05-29T08:50:06;102811.66;;;13.45;57.61
76114;BME280;64845;53.086;5.834;2023-05-29T08:52:34;102808.00;;;13.48;57.56
76114;BME280;64845;53.086;5.834;2023-05-29T08:55:03;102811.44;;;13.55;57.48
76114;BME280;64845;53.086;5.834;2023-05-29T08:57:29;102806.81;;;13.63;57.49
76114;BME280;64845;53.086;5.834;2023-05-29T08:59:57;102811.13;;;13.72;57.48
76114;BME280;64845;53.086;5.834;2023-05-29T09:02:22;102810.03;;;13.82;57.61
76114;BME280;64845;53.086;5.834;2023-05-29T09:04:48;102807.19;;;13.88;57.63
76114;BME280;64845;53.086;5.834;2023-05-29T09:07:21;102816.16;;;13.87;57.56
76114;BME280;64845;53.086;5.834;2023-05-29T09:09:47;102821.47;;;13.90;57.46
76114;BME280;64845;53.086;5.834;2023-05-29T09:12:14;102824.94;;;13.96;57.33
76114;BME280;64845;53.086;5.834;2023-05-29T09:14:43;102821.31;;;13.98;57.28
76114;BME280;64845;53.086;5.834;2023-05-29T09:17:11;102819.47;;;14.00;57.18
76114;BME280;64845;53.086;5.834;2023-05-29T09:19:37;102834.69;;;14.01;56.86
76114;BME280;64845;53.086;5.834;2023-05-29T09:22:15;102821.28;;;14.00;56.86
76114;BME280;64845;53.086;5.834;2023-05-29T09:24:41;102827.53;;;14.02;56.95
76114;BME280;64845;53.086;5.834;2023-05-29T09:27:10;102805.97;;;14.03;57.00
76114;BME280;64845;53.086;5.834;2023-05-29T09:29:39;102816.63;;;14.08;56.67
76114;BME280;64845;53.086;5.834;2023-05-29T09:32:13;102823.75;;;14.11;56.99
76114;BME280;64845;53.086;5.834;2023-05-29T09:34:39;102812.88;;;14.15;56.96
76114;BME280;64845;53.086;5.834;2023-05-29T09:37:06;102817.34;;;14.16;56.78
76114;BME280;64845;53.086;5.834;2023-05-29T09:42:07;102819.72;;;14.30;56.87
76114;BME280;64845;53.086;5.834;2023-05-29T09:44:32;102824.03;;;14.38;56.52
76114;BME280;64845;53.086;5.834;2023-05-29T09:46:59;102819.38;;;14.44;56.60
76114;BME280;64845;53.086;5.834;2023-05-29T09:49:25;102817.53;;;14.48;56.18
76114;BME280;64845;53.086;5.834;2023-05-29T09:51:54;102815.63;;;14.51;55.96
76114;BME280;64845;53.086;5.834;2023-05-29T09:54:19;102811.06;;;14.55;56.20
76114;BME280;64845;53.086;5.834;2023-05-29T09:56:45;102819.03;;;14.60;55.95
76114;BME280;64845;53.086;5.834;2023-05-29T09:59:15;102823.56;;;14.58;55.85
76114;BME280;64845;53.086;5.834;2023-05-29T10:01:42;102816.25;;;14.63;55.91
76114;BME280;64845;53.086;5.834;2023-05-29T10:04:10;102823.38;;;14.65;55.73
76114;BME280;64845;53.086;5.834;2023-05-29T10:06:37;102827.81;;;14.68;55.65
76114;BME280;64845;53.086;5.834;2023-05-29T10:09:08;102827.84;;;14.65;55.69
76114;BME280;64845;53.086;5.834;2023-05-29T10:11:41;102820.66;;;14.69;55.63
76114;BME280;64845;53.086;5.834;2023-05-29T10:14:09;102816.00;;;14.75;55.60
76114;BME280;64845;53.086;5.834;2023-05-29T10:16:42;102822.09;;;14.82;55.53
76114;BME280;64845;53.086;5.834;2023-05-29T10:19:12;102816.59;;;14.87;55.52
76114;BME280;64845;53.086;5.834;2023-05-29T10:21:40;102814.69;;;14.92;55.39
76114;BME280;64845;53.086;5.834;2023-05-29T10:24:07;102815.59;;;14.91;55.05
76114;BME280;64845;53.086;5.834;2023-05-29T10:26:39;102814.75;;;14.90;55.06
76114;BME280;64845;53.086;5.834;2023-05-29T10:29:39;102818.09;;;14.99;55.16
76114;BME280;64845;53.086;5.834;2023-05-29T10:37:21;102808.41;;;15.26;54.92
76114;BME280;64845;53.086;5.834;2023-05-29T10:39:50;102809.94;;;15.36;54.76
76114;BME280;64845;53.086;5.834;2023-05-29T10:45:09;102820.41;;;15.47;54.51
76114;BME280;64845;53.086;5.834;2023-05-29T10:47:37;102812.19;;;15.52;54.45
76114;BME280;64845;53.086;5.834;2023-05-29T10:50:03;102807.56;;;15.57;54.38
76114;BME280;64845;53.086;5.834;2023-05-29T10:52:32;102815.53;;;15.60;54.21
76114;BME280;64845;53.086;5.834;2023-05-29T10:54:58;102806.53;;;15.61;54.01
76114;BME280;64845;53.086;5.834;2023-05-29T10:57:24;102817.22;;;15.64;54.05
76114;BME280;64845;53.086;5.834;2023-05-29T10:59:58;102804.50;;;15.69;54.05
76114;BME280;64845;53.086;5.834;2023-05-29T11:02:24;102810.78;;;15.70;53.92
76114;BME280;64845;53.086;5.834;2023-05-29T11:05:18;102806.22;;;15.72;53.52
76114;BME280;64845;53.086;5.834;2023-05-29T11:13:10;102807.69;;;15.85;53.57
76114;BME280;64845;53.086;5.834;2023-05-29T11:15:36;102802.28;;;15.84;53.14
76114;BME280;64845;53.086;5.834;2023-05-29T11:18:06;102812.38;;;15.77;52.99
76114;BME280;64845;53.086;5.834;2023-05-29T11:20:50;102804.34;;;15.76;52.77
76114;BME280;64845;53.086;5.834;2023-05-29T11:23:17;102808.13;;;15.68;52.95
76114;BME280;64845;53.086;5.834;2023-05-29T11:25:45;102804.50;;;15.69;53.06
76114;BME280;64845;53.086;5.834;2023-05-29T11:28:11;102811.53;;;15.75;53.06
76114;BME280;64845;53.086;5.834;2023-05-29T11:33:08;102814.69;;;15.91;52.91
76114;BME280;64845;53.086;5.834;2023-05-29T11:35:41;102807.75;;;15.81;52.61
76114;BME280;64845;53.086;5.834;2023-05-29T11:38:07;102817.53;;;15.86;52.74
76114;BME280;64845;53.086;5.834;2023-05-29T11:40:36;102818.16;;;15.95;52.48
76114;BME280;64845;53.086;5.834;2023-05-29T11:43:03;102823.31;;;16.02;52.91
76114;BME280;64845;53.086;5.834;2023-05-29T11:45:32;102798.81;;;16.12;52.38
76114;BME280;64845;53.086;5.834;2023-05-29T11:48:00;102813.75;;;16.22;52.68
76114;BME280;64845;53.086;5.834;2023-05-29T11:50:27;102816.16;;;16.31;52.59
76114;BME280;64845;53.086;5.834;2023-05-29T11:52:53;102804.19;;;16.40;52.49
76114;BME280;64845;53.086;5.834;2023-05-29T11:55:19;102813.75;;;16.51;52.54
76114;BME280;64845;53.086;5.834;2023-05-29T11:57:46;102811.06;;;16.51;52.29
76114;BME280;64845;53.086;5.834;2023-05-29T12:00:16;102814.38;;;16.59;51.97
76114;BME280;64845;53.086;5.834;2023-05-29T12:02:42;102806.31;;;16.59;51.98
76114;BME280;64845;53.086;5.834;2023-05-29T12:05:09;102803.53;;;16.60;51.84
76114;BME280;64845;53.086;5.834;2023-05-29T12:07:35;102807.88;;;16.66;51.84
76114;BME280;64845;53.086;5.834;2023-05-29T12:10:12;102811.38;;;16.68;51.92
76114;BME280;64845;53.086;5.834;2023-05-29T12:12:38;102802.31;;;16.71;51.80
76114;BME280;64845;53.086;5.834;2023-05-29T12:15:05;102814.66;;;16.78;51.56
76114;BME280;64845;53.086;5.834;2023-05-29T12:17:32;102806.25;;;16.87;51.33
76114;BME280;64845;53.086;5.834;2023-05-29T12:19:58;102805.84;;;17.00;51.27
76114;BME280;64845;53.086;5.834;2023-05-29T12:22:37;102816.25;;;17.12;50.89
76114;BME280;64845;53.086;5.834;2023-05-29T12:25:10;102803.44;;;17.17;50.80
76114;BME280;64845;53.086;5.834;2023-05-29T12:27:40;102806.75;;;17.26;50.57
76114;BME280;64845;53.086;5.834;2023-05-29T12:30:13;102796.69;;;17.31;50.61
76114;BME280;64845;53.086;5.834;2023-05-29T12:32:43;102802.03;;;17.32;50.42
76114;BME280;64845;53.086;5.834;2023-05-29T12:35:20;102804.22;;;17.21;49.81
76114;BME280;64845;53.086;5.834;2023-05-29T12:37:53;102803.34;;;17.20;49.90
76114;BME280;64845;53.086;5.834;2023-05-29T12:40:22;102789.94;;;17.17;49.73
76114;BME280;64845;53.086;5.834;2023-05-29T12:42:52;102796.13;;;17.21;49.69
76114;BME280;64845;53.086;5.834;2023-05-29T12:45:18;102792.22;;;17.30;49.86
76114;BME280;64845;53.086;5.834;2023-05-29T12:47:58;102798.09;;;17.41;49.61
76114;BME280;64845;53.086;5.834;2023-05-29T12:50:27;102803.31;;;17.46;49.30
76114;BME280;64845;53.086;5.834;2023-05-29T12:53:03;102804.13;;;17.49;49.24
76114;BME280;64845;53.086;5.834;2023-05-29T12:55:31;102802.94;;;17.57;49.21
76114;BME280;64845;53.086;5.834;2023-05-29T12:57:59;102801.56;;;17.70;49.13
76114;BME280;64845;53.086;5.834;2023-05-29T13:00:25;102805.75;;;17.77;48.83
76114;BME280;64845;53.086;5.834;2023-05-29T13:02:50;102802.84;;;17.83;48.84
76114;BME280;64845;53.086;5.834;2023-05-29T13:05:16;102796.56;;;17.83;48.39
76114;BME280;64845;53.086;5.834;2023-05-29T13:07:44;102794.81;;;17.82;48.36
76114;BME280;64845;53.086;5.834;2023-05-29T13:10:09;102796.72;;;17.78;48.30
76114;BME280;64845;53.086;5.834;2023-05-29T13:12:35;102805.53;;;17.60;48.24
76114;BME280;64845;53.086;5.834;2023-05-29T13:15:01;102805.63;;;17.57;48.52